sensor_id;sensor_type;location;lat;lon;timestamp;pressure;altitude;pressure_sealevel;temperature;humidity
8637;BME280;4356;49.068;8.658;2022-11-23T00:00:24;98537.66;;;18.21;40.82
8637;BME280;4356;49.068;8.658;2022-11-23T00:02:54;98533.25;;;18.15;40.83
8637;BME280;4356;49.068;8.658;2022-11-23T00:05:20;98525.34;;;18.13;41.00
8637;BME280;4356;49.068;8.658;2022-11-23T00:07:45;98533.25;;;18.15;40.82
8637;BME280;4356;49.068;8.658;2022-11-23T00:10:11;98528.63;;;18.15;40.86
8637;BME280;4356;49.068;8.658;2022-11-23T00:12:37;98528.63;;;18.15;41.13
8637;BME280;4356;49.068;8.658;2022-11-23T00:15:04;98530.28;;;18.16;41.19
8637;BME280;4356;49.068;8.658;2022-11-23T00:17:30;98520.66;;;18.09;41.11
8637;BME280;4356;49.068;8.658;2022-11-23T00:19:56;98518.78;;;18.09;40.94
8637;BME280;4356;49.068;8.658;2022-11-23T00:22:21;98516.53;;;18.06;41.14
8637;BME280;4356;49.068;8.658;2022-11-23T00:24:47;98520.41;;;18.10;40.97
8637;BME280;4356;49.068;8.658;2022-11-23T00:27:13;98525.59;;;18.12;40.99
8637;BME280;4356;49.068;8.658;2022-11-23T00:29:38;98525.34;;;18.13;41.29
8637;BME280;4356;49.068;8.658;2022-11-23T00:32:04;98520.91;;;18.07;41.41
8637;BME280;4356;49.068;8.658;2022-11-23T00:34:29;98525.84;;;18.10;41.24
8637;BME280;4356;49.068;8.658;2022-11-23T00:36:55;98534.25;;;18.09;41.30
8637;BME280;4356;49.068;8.658;2022-11-23T00:39:21;98532.03;;;18.06;41.18
8637;BME280;4356;49.068;8.658;2022-11-23T00:41:47;98533.69;;;18.07;41.16
8637;BME280;4356;49.068;8.658;2022-11-23T00:44:12;98540.53;;;18.09;41.20
8637;BME280;4356;49.068;8.658;2022-11-23T00:46:38;98538.84;;;18.08;41.17
8637;BME280;4356;49.068;8.658;2022-11-23T00:49:04;98520.34;;;18.05;41.07
8637;BME280;4356;49.068;8.658;2022-11-23T00:51:33;98530.97;;;18.07;41.40
8637;BME280;4356;49.068;8.658;2022-11-23T00:54:00;98530.97;;;18.07;40.96
8637;BME280;4356;49.068;8.658;2022-11-23T00:56:27;98524.16;;;18.04;41.29
8637;BME280;4356;49.068;8.658;2022-11-23T00:58:54;98527.91;;;18.03;41.29
8637;BME280;4356;49.068;8.658;2022-11-23T01:01:23;98526.88;;;18.04;41.12
8637;BME280;4356;49.068;8.658;2022-11-23T01:03:53;98513.69;;;17.96;40.94
8637;BME280;4356;49.068;8.658;2022-11-23T01:06:22;98532.31;;;18.04;41.18
8637;BME280;4356;49.068;8.658;2022-11-23T01:08:53;98530.63;;;18.03;41.31
8637;BME280;4356;49.068;8.658;2022-11-23T01:11:20;98523.25;;;17.99;41.24
8637;BME280;4356;49.068;8.658;2022-11-23T01:13:46;98526.78;;;17.99;41.25
8637;BME280;4356;49.068;8.658;2022-11-23T01:16:16;98532.47;;;17.98;41.12
8637;BME280;4356;49.068;8.658;2022-11-23T01:18:43;98541.44;;;17.98;41.01
8637;BME280;4356;49.068;8.658;2022-11-23T01:21:09;98543.34;;;17.98;40.76
8637;BME280;4356;49.068;8.658;2022-11-23T01:23:34;98534.59;;;17.96;40.40
8637;BME280;4356;49.068;8.658;2022-11-23T01:26:08;98536.53;;;17.95;40.57
8637;BME280;4356;49.068;8.658;2022-11-23T01:28:35;98540.63;;;17.98;41.04
8637;BME280;4356;49.068;8.658;2022-11-23T01:31:10;98540.88;;;17.96;40.39
8637;BME280;4356;49.068;8.658;2022-11-23T01:33:36;98541.97;;;17.95;40.51
8637;BME280;4356;49.068;8.658;2022-11-23T01:36:14;98541.72;;;17.97;40.55
8637;BME280;4356;49.068;8.658;2022-11-23T01:38:40;98540.56;;;17.93;40.81
8637;BME280;4356;49.068;8.658;2022-11-23T01:41:08;98550.91;;;17.96;40.51
8637;BME280;4356;49.068;8.658;2022-11-23T01:43:34;98542.19;;;17.94;40.86
8637;BME280;4356;49.068;8.658;2022-11-23T01:46:00;98541.06;;;17.90;40.71
8637;BME280;4356;49.068;8.658;2022-11-23T01:51:07;98548.97;;;17.91;40.97
8637;BME280;4356;49.068;8.658;2022-11-23T01:53:34;98555.47;;;17.90;40.61
8637;BME280;4356;49.068;8.658;2022-11-23T01:56:03;98539.91;;;17.86;41.00
8637;BME280;4356;49.068;8.658;2022-11-23T01:58:32;98544.25;;;17.87;40.77
8637;BME280;4356;49.068;8.658;2022-11-23T02:01:00;98546.97;;;17.87;41.31
8637;BME280;4356;49.068;8.658;2022-11-23T02:03:28;98554.88;;;17.88;41.17
8637;BME280;4356;49.068;8.658;2022-11-23T02:06:00;98557.84;;;17.87;41.30
8637;BME280;4356;49.068;8.658;2022-11-23T02:08:27;98563.88;;;17.89;41.18
8637;BME280;4356;49.068;8.658;2022-11-23T02:10:57;98561.91;;;17.84;41.23
8637;BME280;4356;49.068;8.658;2022-11-23T02:13:24;98560.31;;;17.88;41.17
8637;BME280;4356;49.068;8.658;2022-11-23T02:15:52;98566.84;;;17.87;41.65
8637;BME280;4356;49.068;8.658;2022-11-23T02:18:22;98567.34;;;17.84;41.32
8637;BME280;4356;49.068;8.658;2022-11-23T02:20:49;98562.13;;;17.83;41.56
8637;BME280;4356;49.068;8.658;2022-11-23T02:28:37;98562.38;;;17.81;41.29
8637;BME280;4356;49.068;8.658;2022-11-23T02:31:04;98568.41;;;17.83;41.68
8637;BME280;4356;49.068;8.658;2022-11-23T02:33:30;98564.31;;;17.81;41.28
8637;BME280;4356;49.068;8.658;2022-11-23T02:35:58;98556.38;;;17.79;41.20
8637;BME280;4356;49.068;8.658;2022-11-23T02:38:28;98563.47;;;17.80;41.43
8637;BME280;4356;49.068;8.658;2022-11-23T02:40:54;98560.19;;;17.78;41.33
8637;BME280;4356;49.068;8.658;2022-11-23T02:43:20;98551.97;;;17.73;41.66
8637;BME280;4356;49.068;8.658;2022-11-23T02:45:56;98559.59;;;17.76;41.54
8637;BME280;4356;49.068;8.658;2022-11-23T02:48:22;98556.63;;;17.78;41.62
8637;BME280;4356;49.068;8.658;2022-11-23T02:50:48;98556.31;;;17.74;41.40
8637;BME280;4356;49.068;8.658;2022-11-23T02:53:13;98562.56;;;17.75;41.60
8637;BME280;4356;49.068;8.658;2022-11-23T02:55:39;98547.84;;;17.71;41.43
8637;BME280;4356;49.068;8.658;2022-11-23T02:58:05;98555.84;;;17.77;41.25
8637;BME280;4356;49.068;8.658;2022-11-23T03:00:31;98536.13;;;17.70;41.76
8637;BME280;4356;49.068;8.658;2022-11-23T03:02:59;98550.63;;;17.76;41.38
8637;BME280;4356;49.068;8.658;2022-11-23T03:05:25;98552.75;;;17.74;41.59
8637;BME280;4356;49.068;8.658;2022-11-23T03:07:51;98552.53;;;17.75;41.62
8637;BME280;4356;49.068;8.658;2022-11-23T03:10:17;98551.13;;;17.73;41.37
8637;BME280;4356;49.068;8.658;2022-11-23T03:12:43;98555.25;;;17.75;41.26
8637;BME280;4356;49.068;8.658;2022-11-23T03:15:09;98542.91;;;17.68;41.80
8637;BME280;4356;49.068;8.658;2022-11-23T03:17:35;98545.44;;;17.74;41.51
8637;BME280;4356;49.068;8.658;2022-11-23T03:20:01;98542.66;;;17.69;41.37
8637;BME280;4356;49.068;8.658;2022-11-23T03:22:27;98548.41;;;17.73;41.86
8637;BME280;4356;49.068;8.658;2022-11-23T03:24:52;98545.94;;;17.71;41.38
8637;BME280;4356;49.068;8.658;2022-11-23T03:27:18;98540.69;;;17.65;41.49
8637;BME280;4356;49.068;8.658;2022-11-23T03:29:43;98544.22;;;17.65;41.61
8637;BME280;4356;49.068;8.658;2022-11-23T03:32:09;98562.00;;;17.73;41.58
8637;BME280;4356;49.068;8.658;2022-11-23T03:34:35;98548.09;;;17.69;41.58
8637;BME280;4356;49.068;8.658;2022-11-23T03:37:01;98549.97;;;17.69;41.46
8637;BME280;4356;49.068;8.658;2022-11-23T03:39:26;98555.75;;;17.72;41.37
8637;BME280;4356;49.068;8.658;2022-11-23T03:41:52;98564.97;;;17.71;41.35
8637;BME280;4356;49.068;8.658;2022-11-23T03:44:18;98551.38;;;17.71;41.21
8637;BME280;4356;49.068;8.658;2022-11-23T03:46:43;98546.47;;;17.68;41.42
8637;BME280;4356;49.068;8.658;2022-11-23T03:49:09;98550.56;;;17.71;41.20
8637;BME280;4356;49.068;8.658;2022-11-23T03:51:35;98546.47;;;17.68;41.17
8637;BME280;4356;49.068;8.658;2022-11-23T03:54:00;98534.44;;;17.64;41.41
8637;BME280;4356;49.068;8.658;2022-11-23T03:56:27;98530.63;;;17.65;41.17
8637;BME280;4356;49.068;8.658;2022-11-23T03:58:52;98542.09;;;17.67;41.29
8637;BME280;4356;49.068;8.658;2022-11-23T04:01:18;98543.75;;;17.68;41.26
8637;BME280;4356;49.068;8.658;2022-11-23T04:03:44;98549.19;;;17.68;41.69
8637;BME280;4356;49.068;8.658;2022-11-23T04:06:09;98536.31;;;17.64;41.20
8637;BME280;4356;49.068;8.658;2022-11-23T04:08:35;98546.09;;;17.65;41.46
8637;BME280;4356;49.068;8.658;2022-11-23T04:11:00;98545.88;;;17.66;41.41
8637;BME280;4356;49.068;8.658;2022-11-23T04:13:26;98546.38;;;17.63;41.37
8637;BME280;4356;49.068;8.658;2022-11-23T04:15:52;98548.59;;;17.66;41.61
8637;BME280;4356;49.068;8.658;2022-11-23T04:18:17;98544.22;;;17.65;41.66
8637;BME280;4356;49.068;8.658;2022-11-23T04:20:43;98539.56;;;17.61;41.22
8637;BME280;4356;49.068;8.658;2022-11-23T04:23:09;98546.94;;;17.65;41.35
8637;BME280;4356;49.068;8.658;2022-11-23T04:25:34;98543.66;;;17.63;41.16
8637;BME280;4356;49.068;8.658;2022-11-23T04:28:00;98535.25;;;17.65;41.16
8637;BME280;4356;49.068;8.658;2022-11-23T04:30:25;98534.91;;;17.61;41.36
8637;BME280;4356;49.068;8.658;2022-11-23T04:32:51;98537.97;;;17.65;41.28
8637;BME280;4356;49.068;8.658;2022-11-23T04:35:17;98527.84;;;17.60;41.43
8637;BME280;4356;49.068;8.658;2022-11-23T04:37:44;98518.28;;;17.58;41.21
8637;BME280;4356;49.068;8.658;2022-11-23T04:40:10;98526.44;;;17.58;41.44
8637;BME280;4356;49.068;8.658;2022-11-23T04:42:35;98525.13;;;17.60;41.61
8637;BME280;4356;49.068;8.658;2022-11-23T04:45:01;98527.84;;;17.60;41.50
8637;BME280;4356;49.068;8.658;2022-11-23T04:47:27;98528.94;;;17.59;41.70
8637;BME280;4356;49.068;8.658;2022-11-23T04:49:52;98522.09;;;17.57;41.53
8637;BME280;4356;49.068;8.658;2022-11-23T04:52:18;98523.97;;;17.56;41.48
8637;BME280;4356;49.068;8.658;2022-11-23T04:54:44;98528.09;;;17.59;41.48
8637;BME280;4356;49.068;8.658;2022-11-23T04:57:09;98526.69;;;17.56;41.64
8637;BME280;4356;49.068;8.658;2022-11-23T04:59:35;98533.78;;;17.57;41.89
8637;BME280;4356;49.068;8.658;2022-11-23T05:02:01;98536.50;;;17.57;41.79
8637;BME280;4356;49.068;8.658;2022-11-23T05:04:26;98538.16;;;17.58;41.55
8637;BME280;4356;49.068;8.658;2022-11-23T05:06:52;98528.25;;;17.52;41.45
8637;BME280;4356;49.068;8.658;2022-11-23T05:09:18;98540.84;;;17.58;41.54
8637;BME280;4356;49.068;8.658;2022-11-23T05:11:44;98535.69;;;17.57;41.56
8637;BME280;4356;49.068;8.658;2022-11-23T05:14:09;98533.47;;;17.54;41.28
8637;BME280;4356;49.068;8.658;2022-11-23T05:16:35;98530.75;;;17.54;41.60
8637;BME280;4356;49.068;8.658;2022-11-23T05:19:01;98521.19;;;17.51;41.77
8637;BME280;4356;49.068;8.658;2022-11-23T05:21:26;98530.75;;;17.54;41.65
8637;BME280;4356;49.068;8.658;2022-11-23T05:23:52;98528.03;;;17.54;41.58
8637;BME280;4356;49.068;8.658;2022-11-23T05:26:18;98533.22;;;17.55;41.74
8637;BME280;4356;49.068;8.658;2022-11-23T05:28:44;98537.50;;;17.51;41.79
8637;BME280;4356;49.068;8.658;2022-11-23T05:31:10;98527.22;;;17.53;41.37
8637;BME280;4356;49.068;8.658;2022-11-23T05:33:35;98532.63;;;17.53;41.71
8637;BME280;4356;49.068;8.658;2022-11-23T05:36:01;98533.22;;;17.55;41.29
8637;BME280;4356;49.068;8.658;2022-11-23T05:38:28;98526.63;;;17.51;41.67
8637;BME280;4356;49.068;8.658;2022-11-23T05:40:53;98532.06;;;17.51;41.45
8637;BME280;4356;49.068;8.658;2022-11-23T05:43:19;98536.19;;;17.54;41.77
8637;BME280;4356;49.068;8.658;2022-11-23T05:45:44;98533.69;;;17.52;41.47
8637;BME280;4356;49.068;8.658;2022-11-23T05:48:10;98534.53;;;17.53;41.74
8637;BME280;4356;49.068;8.658;2022-11-23T05:50:36;98532.63;;;17.53;41.68
8637;BME280;4356;49.068;8.658;2022-11-23T05:53:02;98531.22;;;17.51;41.86
8637;BME280;4356;49.068;8.658;2022-11-23T05:55:27;98520.88;;;17.48;41.75
8637;BME280;4356;49.068;8.658;2022-11-23T05:57:53;98527.22;;;17.53;41.85
8637;BME280;4356;49.068;8.658;2022-11-23T06:00:19;98536.41;;;17.52;41.90
8637;BME280;4356;49.068;8.658;2022-11-23T06:02:45;98536.91;;;17.49;41.81
8637;BME280;4356;49.068;8.658;2022-11-23T06:05:11;98541.84;;;17.52;41.67
8637;BME280;4356;49.068;8.658;2022-11-23T06:07:37;98545.38;;;17.53;41.59
8637;BME280;4356;49.068;8.658;2022-11-23T06:10:04;98547.59;;;17.56;41.87
8637;BME280;4356;49.068;8.658;2022-11-23T06:12:30;98551.47;;;17.60;41.74
8637;BME280;4356;49.068;8.658;2022-11-23T06:14:56;98549.59;;;17.60;41.84
8637;BME280;4356;49.068;8.658;2022-11-23T06:17:22;98559.69;;;17.65;41.36
8637;BME280;4356;49.068;8.658;2022-11-23T06:19:48;98554.03;;;17.66;41.22
8637;BME280;4356;49.068;8.658;2022-11-23T06:22:14;98548.94;;;17.70;41.72
8637;BME280;4356;49.068;8.658;2022-11-23T06:24:41;98548.41;;;17.73;41.43
8637;BME280;4356;49.068;8.658;2022-11-23T06:27:06;98535.34;;;17.70;41.01
8637;BME280;4356;49.068;8.658;2022-11-23T06:29:32;98548.47;;;17.78;41.16
8637;BME280;4356;49.068;8.658;2022-11-23T06:31:58;98545.50;;;17.79;41.05
8637;BME280;4356;49.068;8.658;2022-11-23T06:34:23;98544.19;;;17.82;40.79
8637;BME280;4356;49.068;8.658;2022-11-23T06:36:49;98534.75;;;17.84;40.99
8637;BME280;4356;49.068;8.658;2022-11-23T06:39:15;98534.22;;;17.87;40.70
8637;BME280;4356;49.068;8.658;2022-11-23T06:41:40;98541.88;;;17.90;40.36
8637;BME280;4356;49.068;8.658;2022-11-23T06:44:06;98544.09;;;17.93;40.43
8637;BME280;4356;49.068;8.658;2022-11-23T06:46:32;98545.00;;;17.99;40.62
8637;BME280;4356;49.068;8.658;2022-11-23T06:48:57;98549.09;;;18.01;40.72
8637;BME280;4356;49.068;8.658;2022-11-23T06:51:23;98552.13;;;18.05;40.72
8637;BME280;4356;49.068;8.658;2022-11-23T06:53:49;98551.97;;;18.11;40.42
8637;BME280;4356;49.068;8.658;2022-11-23T06:56:15;98550.03;;;18.12;40.26
8637;BME280;4356;49.068;8.658;2022-11-23T06:58:41;98556.94;;;18.19;40.12
8637;BME280;4356;49.068;8.658;2022-11-23T07:01:08;98559.41;;;18.21;40.21
8637;BME280;4356;49.068;8.658;2022-11-23T07:03:34;98564.94;;;18.26;40.42
8637;BME280;4356;49.068;8.658;2022-11-23T07:06:09;98566.31;;;18.28;40.20
8637;BME280;4356;49.068;8.658;2022-11-23T07:08:35;98565.84;;;18.31;39.89
8637;BME280;4356;49.068;8.658;2022-11-23T07:11:04;98564.75;;;18.32;40.11
8637;BME280;4356;49.068;8.658;2022-11-23T07:13:31;98564.81;;;18.37;39.67
8637;BME280;4356;49.068;8.658;2022-11-23T07:15:57;98572.69;;;18.39;39.78
8637;BME280;4356;49.068;8.658;2022-11-23T07:18:25;98562.84;;;18.33;39.61
8637;BME280;4356;49.068;8.658;2022-11-23T07:20:56;98578.47;;;18.42;39.72
8637;BME280;4356;49.068;8.658;2022-11-23T07:23:26;98572.25;;;18.42;39.67
8637;BME280;4356;49.068;8.658;2022-11-23T07:25:52;98568.69;;;18.41;39.71
8637;BME280;4356;49.068;8.658;2022-11-23T07:28:18;98574.19;;;18.46;39.43
8637;BME280;4356;49.068;8.658;2022-11-23T07:30:44;98565.72;;;18.43;39.50
8637;BME280;4356;49.068;8.658;2022-11-23T07:33:11;98574.50;;;18.50;39.23
8637;BME280;4356;49.068;8.658;2022-11-23T07:35:38;98576.66;;;18.48;39.47
8637;BME280;4356;49.068;8.658;2022-11-23T07:38:05;98580.78;;;18.51;39.74
8637;BME280;4356;49.068;8.658;2022-11-23T07:40:35;98572.94;;;18.54;39.31
8637;BME280;4356;49.068;8.658;2022-11-23T07:43:02;98579.50;;;18.58;39.59
8637;BME280;4356;49.068;8.658;2022-11-23T07:45:29;98584.13;;;18.58;39.45
8637;BME280;4356;49.068;8.658;2022-11-23T07:48:07;98585.78;;;18.59;39.13
8637;BME280;4356;49.068;8.658;2022-11-23T07:50:35;98588.81;;;18.62;39.54
8637;BME280;4356;49.068;8.658;2022-11-23T07:53:02;98582.53;;;18.62;39.56
8637;BME280;4356;49.068;8.658;2022-11-23T07:55:28;98573.56;;;18.61;39.75
8637;BME280;4356;49.068;8.658;2022-11-23T07:57:56;98579.88;;;18.67;39.84
8637;BME280;4356;49.068;8.658;2022-11-23T08:00:23;98582.03;;;18.65;39.59
8637;BME280;4356;49.068;8.658;2022-11-23T08:02:49;98589.19;;;18.71;39.59
8637;BME280;4356;49.068;8.658;2022-11-23T08:05:16;98579.38;;;18.70;39.68
8637;BME280;4356;49.068;8.658;2022-11-23T08:07:43;98572.22;;;18.64;39.77
8637;BME280;4356;49.068;8.658;2022-11-23T08:10:10;98577.22;;;18.72;39.87
8637;BME280;4356;49.068;8.658;2022-11-23T08:12:36;98579.19;;;18.76;40.19
8637;BME280;4356;49.068;8.658;2022-11-23T08:15:02;98584.94;;;18.80;39.86
8637;BME280;4356;49.068;8.658;2022-11-23T08:17:28;98570.75;;;18.78;40.39
8637;BME280;4356;49.068;8.658;2022-11-23T08:19:54;98584.41;;;18.83;40.26
8637;BME280;4356;49.068;8.658;2022-11-23T08:22:19;98578.47;;;18.86;40.44
8637;BME280;4356;49.068;8.658;2022-11-23T08:24:45;98579.84;;;18.88;40.08
8637;BME280;4356;49.068;8.658;2022-11-23T08:27:12;98577.44;;;18.92;40.15
8637;BME280;4356;49.068;8.658;2022-11-23T08:29:39;98567.13;;;18.94;40.08
8637;BME280;4356;49.068;8.658;2022-11-23T08:32:05;98574.25;;;19.00;40.22
8637;BME280;4356;49.068;8.658;2022-11-23T08:34:30;98569.88;;;18.99;40.11
8637;BME280;4356;49.068;8.658;2022-11-23T08:36:56;98566.41;;;19.03;39.78
8637;BME280;4356;49.068;8.658;2022-11-23T08:39:22;98564.50;;;19.04;39.71
8637;BME280;4356;49.068;8.658;2022-11-23T08:41:47;98567.81;;;19.06;40.04
8637;BME280;4356;49.068;8.658;2022-11-23T08:44:13;98572.47;;;19.10;39.80
8637;BME280;4356;49.068;8.658;2022-11-23T08:46:39;98568.41;;;19.13;39.78
8637;BME280;4356;49.068;8.658;2022-11-23T08:49:05;98572.00;;;19.18;39.83
8637;BME280;4356;49.068;8.658;2022-11-23T08:51:32;98571.75;;;19.20;39.95
8637;BME280;4356;49.068;8.658;2022-11-23T08:53:57;98573.69;;;19.24;39.95
8637;BME280;4356;49.068;8.658;2022-11-23T08:56:23;98578.38;;;19.29;40.15
8637;BME280;4356;49.068;8.658;2022-11-23T08:58:49;98577.28;;;19.30;40.27
8637;BME280;4356;49.068;8.658;2022-11-23T09:01:16;98580.06;;;19.35;40.44
8637;BME280;4356;49.068;8.658;2022-11-23T09:03:42;98574.69;;;19.40;40.62
8637;BME280;4356;49.068;8.658;2022-11-23T09:06:08;98577.72;;;19.43;40.54
8637;BME280;4356;49.068;8.658;2022-11-23T09:08:34;98573.88;;;19.44;40.47
8637;BME280;4356;49.068;8.658;2022-11-23T09:11:02;98573.13;;;19.49;40.56
8637;BME280;4356;49.068;8.658;2022-11-23T09:13:28;98560.56;;;19.48;40.58
8637;BME280;4356;49.068;8.658;2022-11-23T09:15:57;98562.78;;;19.51;40.54
8637;BME280;4356;49.068;8.658;2022-11-23T09:18:27;98576.75;;;19.60;40.44
8637;BME280;4356;49.068;8.658;2022-11-23T09:20:55;98587.13;;;19.63;40.39
8637;BME280;4356;49.068;8.658;2022-11-23T09:23:21;98579.81;;;19.68;40.56
8637;BME280;4356;49.068;8.658;2022-11-23T09:25:46;98577.91;;;19.69;40.38
8637;BME280;4356;49.068;8.658;2022-11-23T09:28:17;98570.28;;;19.71;40.30
8637;BME280;4356;49.068;8.658;2022-11-23T09:30:46;98575.22;;;19.74;40.65
8637;BME280;4356;49.068;8.658;2022-11-23T09:33:12;98579.63;;;19.80;40.64
8637;BME280;4356;49.068;8.658;2022-11-23T09:35:39;98580.47;;;19.85;40.52
8637;BME280;4356;49.068;8.658;2022-11-23T09:38:05;98580.22;;;19.87;40.40
8637;BME280;4356;49.068;8.658;2022-11-23T09:40:36;98585.44;;;19.93;40.62
8637;BME280;4356;49.068;8.658;2022-11-23T09:46:02;98582.22;;;20.01;40.60
8637;BME280;4356;49.068;8.658;2022-11-23T09:49:07;98580.34;;;20.07;40.22
8637;BME280;4356;49.068;8.658;2022-11-23T09:51:36;98573.53;;;20.09;40.44
8637;BME280;4356;49.068;8.658;2022-11-23T09:54:08;98565.41;;;20.14;40.49
8637;BME280;4356;49.068;8.658;2022-11-23T09:56:36;98558.03;;;20.15;40.43
8637;BME280;4356;49.068;8.658;2022-11-23T09:59:13;98563.00;;;20.23;40.63
8637;BME280;4356;49.068;8.658;2022-11-23T10:01:46;98563.84;;;20.23;40.22
8637;BME280;4356;49.068;8.658;2022-11-23T10:04:18;98559.47;;;20.27;40.72
8637;BME280;4356;49.068;8.658;2022-11-23T10:06:51;98563.88;;;20.33;40.72
8637;BME280;4356;49.068;8.658;2022-11-23T10:25:18;98539.13;;;20.50;40.53
8637;BME280;4356;49.068;8.658;2022-11-23T10:27:46;98548.97;;;20.56;40.47
8637;BME280;4356;49.068;8.658;2022-11-23T10:30:14;98549.81;;;20.62;40.28
8637;BME280;4356;49.068;8.658;2022-11-23T10:32:54;98554.72;;;20.65;40.19
8637;BME280;4356;49.068;8.658;2022-11-23T10:35:32;98539.69;;;20.62;40.50
8637;BME280;4356;49.068;8.658;2022-11-23T10:38:17;98546.00;;;20.73;40.79
8637;BME280;4356;49.068;8.658;2022-11-23T10:40:58;98549.34;;;20.80;40.59
8637;BME280;4356;49.068;8.658;2022-11-23T10:43:38;98543.88;;;20.85;40.71
8637;BME280;4356;49.068;8.658;2022-11-23T10:46:28;98539.53;;;20.89;40.37
8637;BME280;4356;49.068;8.658;2022-11-23T10:49:55;98532.69;;;20.96;39.98
8637;BME280;4356;49.068;8.658;2022-11-23T10:51:55;98536.81;;;21.04;39.78
8637;BME280;4356;49.068;8.658;2022-11-23T10:54:37;98536.03;;;21.03;39.44
8637;BME280;4356;49.068;8.658;2022-11-23T11:02:39;98527.00;;;21.18;39.09
8637;BME280;4356;49.068;8.658;2022-11-23T11:05:30;98523.19;;;21.24;39.37
8637;BME280;4356;49.068;8.658;2022-11-23T11:07:59;98529.22;;;21.26;38.79
8637;BME280;4356;49.068;8.658;2022-11-23T11:10:33;98523.75;;;21.31;38.87
8637;BME280;4356;49.068;8.658;2022-11-23T11:12:59;98518.28;;;21.31;38.78
8637;BME280;4356;49.068;8.658;2022-11-23T11:15:25;98521.81;;;21.36;38.66
8637;BME280;4356;49.068;8.658;2022-11-23T11:17:55;98516.63;;;21.40;38.45
8637;BME280;4356;49.068;8.658;2022-11-23T11:20:28;98507.91;;;21.43;37.97
8637;BME280;4356;49.068;8.658;2022-11-23T11:22:57;98515.53;;;21.46;37.54
8637;BME280;4356;49.068;8.658;2022-11-23T11:25:37;98505.16;;;21.48;37.58
8637;BME280;4356;49.068;8.658;2022-11-23T11:28:17;98485.22;;;21.42;37.09
8637;BME280;4356;49.068;8.658;2022-11-23T11:33:39;98483.56;;;21.52;36.51
8637;BME280;4356;49.068;8.658;2022-11-23T11:36:11;98481.94;;;21.56;36.06
8637;BME280;4356;49.068;8.658;2022-11-23T11:38:40;98473.72;;;21.56;36.22
8637;BME280;4356;49.068;8.658;2022-11-23T11:41:11;98471.53;;;21.58;35.88
8637;BME280;4356;49.068;8.658;2022-11-23T11:43:46;98472.88;;;21.60;35.11
8637;BME280;4356;49.068;8.658;2022-11-23T11:46:22;98473.16;;;21.64;35.23
8637;BME280;4356;49.068;8.658;2022-11-23T11:48:53;98465.22;;;21.67;35.62
8637;BME280;4356;49.068;8.658;2022-11-23T11:51:27;98462.47;;;21.67;34.88
8637;BME280;4356;49.068;8.658;2022-11-23T11:54:25;98459.47;;;21.74;34.29
8637;BME280;4356;49.068;8.658;2022-11-23T11:57:02;98451.81;;;21.71;35.02
8637;BME280;4356;49.068;8.658;2022-11-23T12:04:36;98458.13;;;21.81;34.92
8637;BME280;4356;49.068;8.658;2022-11-23T12:07:19;98449.91;;;21.81;35.44
8637;BME280;4356;49.068;8.658;2022-11-23T12:09:50;98447.69;;;21.83;34.53
8637;BME280;4356;49.068;8.658;2022-11-23T12:12:18;98450.19;;;21.85;34.23
8637;BME280;4356;49.068;8.658;2022-11-23T12:14:46;98439.50;;;21.83;34.45
8637;BME280;4356;49.068;8.658;2022-11-23T12:17:39;98439.78;;;21.87;33.13
8637;BME280;4356;49.068;8.658;2022-11-23T12:20:19;98446.34;;;21.86;33.29
8637;BME280;4356;49.068;8.658;2022-11-23T12:25:39;98445.25;;;21.87;33.21
8637;BME280;4356;49.068;8.658;2022-11-23T12:31:23;98439.78;;;21.87;33.08
8637;BME280;4356;49.068;8.658;2022-11-23T12:34:24;98441.41;;;21.88;33.78
8637;BME280;4356;49.068;8.658;2022-11-23T12:45:30;98428.84;;;21.87;33.63
8637;BME280;4356;49.068;8.658;2022-11-23T12:48:19;98422.53;;;21.86;32.44
8637;BME280;4356;49.068;8.658;2022-11-23T12:56:12;98414.34;;;21.86;32.30
8637;BME280;4356;49.068;8.658;2022-11-23T12:58:44;98408.63;;;21.83;33.34
8637;BME280;4356;49.068;8.658;2022-11-23T13:01:12;98411.59;;;21.86;33.03
8637;BME280;4356;49.068;8.658;2022-11-23T13:03:55;98408.59;;;21.88;32.51
8637;BME280;4356;49.068;8.658;2022-11-23T13:12:46;98411.59;;;21.86;32.56
8637;BME280;4356;49.068;8.658;2022-11-23T13:23:16;98406.97;;;21.87;33.34
8637;BME280;4356;49.068;8.658;2022-11-23T13:28:40;98400.34;;;21.93;34.75
8637;BME280;4356;49.068;8.658;2022-11-23T13:33:50;98392.44;;;21.91;34.31
8637;BME280;4356;49.068;8.658;2022-11-23T13:38:58;98375.47;;;21.94;34.46
8637;BME280;4356;49.068;8.658;2022-11-23T13:46:52;98378.47;;;21.93;34.27
8637;BME280;4356;49.068;8.658;2022-11-23T13:49:41;98376.56;;;21.93;34.07
8637;BME280;4356;49.068;8.658;2022-11-23T13:55:19;98364.81;;;21.93;34.26
8637;BME280;4356;49.068;8.658;2022-11-23T13:58:31;98361.53;;;21.91;34.50
8637;BME280;4356;49.068;8.658;2022-11-23T14:00:52;98347.84;;;21.91;33.86
8637;BME280;4356;49.068;8.658;2022-11-23T14:03:53;98356.31;;;21.94;34.27
8637;BME280;4356;49.068;8.658;2022-11-23T14:06:47;98348.38;;;21.93;34.49
8637;BME280;4356;49.068;8.658;2022-11-23T14:14:52;98332.81;;;21.93;33.97
8637;BME280;4356;49.068;8.658;2022-11-23T14:17:32;98329.50;;;21.96;34.35
8637;BME280;4356;49.068;8.658;2022-11-23T14:23:19;98334.97;;;21.96;34.15
8637;BME280;4356;49.068;8.658;2022-11-23T14:43:00;98313.09;;;21.96;34.65
8637;BME280;4356;49.068;8.658;2022-11-23T14:45:30;98313.66;;;21.93;34.09
8637;BME280;4356;49.068;8.658;2022-11-23T14:48:21;98321.03;;;21.93;34.12
8637;BME280;4356;49.068;8.658;2022-11-23T14:51:05;98322.94;;;21.92;35.06
8637;BME280;4356;49.068;8.658;2022-11-23T14:53:41;98329.25;;;21.93;34.46
8637;BME280;4356;49.068;8.658;2022-11-23T14:56:32;98323.31;;;21.81;34.37
8637;BME280;4356;49.068;8.658;2022-11-23T14:59:21;98327.38;;;21.88;35.16
8637;BME280;4356;49.068;8.658;2022-11-23T15:01:50;98321.38;;;21.86;34.52
8637;BME280;4356;49.068;8.658;2022-11-23T15:04:28;98316.72;;;21.82;34.37
8637;BME280;4356;49.068;8.658;2022-11-23T15:07:24;98316.72;;;21.82;34.25
8637;BME280;4356;49.068;8.658;2022-11-23T15:10:03;98319.47;;;21.82;34.61
8637;BME280;4356;49.068;8.658;2022-11-23T15:12:45;98313.16;;;21.76;34.63
8637;BME280;4356;49.068;8.658;2022-11-23T15:15:21;98317.28;;;21.79;34.36
8637;BME280;4356;49.068;8.658;2022-11-23T15:17:59;98312.06;;;21.77;34.28
8637;BME280;4356;49.068;8.658;2022-11-23T15:20:32;98318.91;;;21.75;34.34
8637;BME280;4356;49.068;8.658;2022-11-23T15:23:01;98329.03;;;21.74;34.67
8637;BME280;4356;49.068;8.658;2022-11-23T15:25:27;98326.88;;;21.71;35.21
8637;BME280;4356;49.068;8.658;2022-11-23T15:27:53;98318.69;;;21.66;35.08
8637;BME280;4356;49.068;8.658;2022-11-23T15:32:59;98337.81;;;21.71;34.86